Princeton, AL (35766)

6:35 PM CDT on March 26, 2015 (GMT -0500)
Wininger | | Change Station
CLOSE
Current Station
Personal Weather Station
Location: Woodville, AL
Elevation: 1572 ft
Nearby Weather Stations
Active Advisory: Special Statement

Elev 1572 ft 34.74 °N, 86.16 °W | Updated 3 seconds ago

Overcast
Overcast
52.5 °F
Feels Like 52.5 °F
N
19.7
Wind Variable Wind from NW
Gusts 30.0 mph

Today
High -- | Low -- °F
--% Chance of Precip.
Yesterday
High -- | Low -- °F
Precip. -- in
6:40 AM 7:01 PM
Waxing Crescent, 47% visible
Pressure 29.81 in
Visibility 9.0 miles
Clouds Few 6000 ft
Scattered Clouds 7500 ft
Dew Point 50 °F
Humidity 93%
Rainfall 0.00 in
Snow Depth Not available.
UV 0.0 out of 12
Pollen 8.60 out of 12
Air Quality Not available.
Flu Activity Not available.
METAR K4A6 262315Z AUTO 34012G17KT 9SM FEW060 SCT075 15/11 A2981 RMK AO2

More Conditions Fewer Conditions

Pressure 29.81 in
Visibility 9.0 miles
Clouds Few 6000 ft
Scattered Clouds 7500 ft
Dew Point 50 °F
Humidity 93%
Rainfall 0.00 in
Snow Depth Not available.
UV 0.0 out of 12
Pollen 8.60 out of 12
Air Quality Not available.
Flu Activity Not available.
METAR K4A6 262315Z AUTO 34012G17KT 9SM FEW060 SCT075 15/11 A2981 RMK AO2

More Conditions Fewer Conditions

10-Day Weather Forecast

Almanac

Astronomy

Mar. 26, 2015 Rise Set
Actual Time
Civil Twilight
Nautical Twilight
Astronomical Twilight
Moon
Length of Visible Light
Length of Day
Tomorrow will be .
, % of the Moon is Illuminated

Today's Extremes

State Highs State Lows

Community

WunderPhotos

Upload Photos

1,808,638 photos uploaded!

WunderBlogs® & News

Nearby

Air Quality

  Air Quality AQ Index Pollutant
Not available.

Snow Depth

Station Depth Elevation

Earthquake Activity

City Distance Mag. Time & Date
Minimum magnitude displayed is 2.5.

Coastal Water Temperatures

Place Temperature

Stations

Nearby Weather Stations

Station Location Temp. Windchill Dew Point Humidity Wind Precip. Elev Updated Type
                   
Special Statement
Statement as of 1:14 PM CDT on March 26, 2015

... Freezing temperatures are expected across the Tennessee Valley
this weekend...

A strong cold front will bring much colder temperatures across the
area late tonight and through the weekend. Freezing temperatures are
expected both Saturday and Sunday mornings. The best chance for
freezing temperatures will be over northeast Alabama and southern
middle Tennessee. Morning lows on Saturday and Sunday morning will
range from 27 degrees to 32 degrees for 2 to 3 hours.

Living vegetation and crops that are susceptible to freezing
temperatures may be damaged or killed.